Kai Jin — JG5060 — position and weather

sailwx.info

Track history (hours):
 
Tides and Currents Weather Stations Pressure Air Temp Water Temp Dewpoint Dewpoint Depression Visibility Wind Speed Wind Dir Waves Ship Positions

Kai Jin

Last reported at 2014-Apr-02 10:10 UTC. Time now 2014-Sep-20 08:00 UTC.
Position N 34°49' E 139°09'.
Warning: this ship's position is months out of date.

Length 68 m; draft 4.6 m.

Type: Ship (hazmat cat A). MMSI: 431300061.

Date/timePositionNaut miles runAvg speedWind from/ knotsBaromVisibWave heightAir tempDewpointWater temp
2014-Apr-02 10:10N 34°49' E 139°09'812.4
2014-Apr-02 09:33N 34°55' E 139°15'1312.6
2014-Apr-02 08:31N 35°01' E 139°29'1212.5
2014-Apr-02 07:33N 35°07' E 139°42'1111.1
2014-Apr-02 06:33N 35°18' E 139°44'1010.1
2014-Apr-02 05:33N 35°28' E 139°48'1212.2
2014-Apr-02 04:33N 35°32' E 140°02'1 1.5
2014-Apr-02 03:33N 35°32' E 140°04'0 0.0
2014-Apr-02 02:21N 35°32' E 140°04'0 0.1
2014-Apr-02 01:33N 35°32' E 140°04'0 0.1
2014-Apr-02 00:33N 35°32' E 140°04'0 0.0
2014-Apr-01 23:33N 35°32' E 140°04'5 4.9
2014-Apr-01 22:34N 35°31' E 139°58'3 3.0
2014-Apr-01 21:33N 35°28' E 139°55'0 0.0
2014-Apr-01 20:27N 35°28' E 139°55'0 0.0
2014-Apr-01 19:27N 35°28' E 139°55'0 0.0
2014-Apr-01 18:33N 35°28' E 139°55'0 0.0
2014-Apr-01 17:33N 35°28' E 139°55'0 0.0
2014-Apr-01 16:33N 35°28' E 139°55'0 0.1
2014-Apr-01 15:33N 35°28' E 139°55'0 0.0
2014-Apr-01 14:33N 35°28' E 139°55'0 0.0
2014-Apr-01 13:33N 35°28' E 139°55'0 0.0
2014-Apr-01 12:33N 35°28' E 139°55'0 0.0
2014-Apr-01 11:30N 35°28' E 139°55'0 0.0
2014-Apr-01 10:24N 35°28' E 139°55'0 0.0
2014-Apr-01 09:30N 35°28' E 139°55'0 0.0
2014-Apr-01 08:27N 35°28' E 139°55'0 0.0
2014-Apr-01 07:24N 35°28' E 139°55'0 0.0
2014-Apr-01 06:21N 35°28' E 139°55'0 0.0
2014-Apr-01 05:30N 35°28' E 139°55'0 0.0
2014-Apr-01 04:30N 35°28' E 139°55'0 0.0
2014-Apr-01 03:30N 35°28' E 139°55'0 0.0
2014-Apr-01 02:33N 35°28' E 139°55'0 0.1
2014-Apr-01 01:27N 35°28' E 139°55'0 0.1
2014-Apr-01 00:33N 35°28' E 139°55'0 0.0
2014-Mar-31 23:33N 35°28' E 139°55'0 0.0
2014-Mar-31 22:24N 35°28' E 139°55'0 0.0
2014-Mar-31 21:24N 35°28' E 139°55'0 0.0
2014-Mar-31 20:30N 35°28' E 139°55'0 0.0
2014-Mar-31 19:33N 35°28' E 139°55'0 0.0
2014-Mar-31 18:30N 35°28' E 139°55'0 0.0
2014-Mar-31 17:33N 35°28' E 139°55'1 0.9
2014-Mar-31 16:33N 35°28' E 139°54'1010.0
2014-Mar-31 15:33N 35°22' E 139°45'1110.8
2014-Mar-31 14:33N 35°11' E 139°47'1110.6
2014-Mar-31 13:33N 35°02' E 139°40'2411.4
2014-Mar-31 11:30N 34°48' E 139°16'225 9.8
2014-Mar-30 12:33N 34°05' E 134°48'  
Track history (hours):
 
Tides and Currents Weather Stations Pressure Air Temp Water Temp Dewpoint Dewpoint Depression Visibility Wind Speed Wind Dir Waves Ship Positions

Kai Jin

Last reported at 2014-Apr-02 10:10 UTC. Time now 2014-Sep-20 08:00 UTC.
Position N 34°49' E 139°09'.
Warning: this ship's position is months out of date.

Length 68 m; draft 4.6 m.

Type: Ship (hazmat cat A). MMSI: 431300061.

Date/timePositionNaut miles runAvg speedWind from/ knotsBaromVisibWave heightAir tempDewpointWater temp
2014-Apr-02 10:10N 34°49' E 139°09'812.4
2014-Apr-02 09:33N 34°55' E 139°15'1312.6
2014-Apr-02 08:31N 35°01' E 139°29'1212.5
2014-Apr-02 07:33N 35°07' E 139°42'1111.1
2014-Apr-02 06:33N 35°18' E 139°44'1010.1
2014-Apr-02 05:33N 35°28' E 139°48'1212.2
2014-Apr-02 04:33N 35°32' E 140°02'1 1.5
2014-Apr-02 03:33N 35°32' E 140°04'0 0.0
2014-Apr-02 02:21N 35°32' E 140°04'0 0.1
2014-Apr-02 01:33N 35°32' E 140°04'0 0.1
2014-Apr-02 00:33N 35°32' E 140°04'0 0.0
2014-Apr-01 23:33N 35°32' E 140°04'5 4.9
2014-Apr-01 22:34N 35°31' E 139°58'3 3.0
2014-Apr-01 21:33N 35°28' E 139°55'0 0.0
2014-Apr-01 20:27N 35°28' E 139°55'0 0.0
2014-Apr-01 19:27N 35°28' E 139°55'0 0.0
2014-Apr-01 18:33N 35°28' E 139°55'0 0.0
2014-Apr-01 17:33N 35°28' E 139°55'0 0.0
2014-Apr-01 16:33N 35°28' E 139°55'0 0.1
2014-Apr-01 15:33N 35°28' E 139°55'0 0.0
2014-Apr-01 14:33N 35°28' E 139°55'0 0.0
2014-Apr-01 13:33N 35°28' E 139°55'0 0.0
2014-Apr-01 12:33N 35°28' E 139°55'0 0.0
2014-Apr-01 11:30N 35°28' E 139°55'0 0.0
2014-Apr-01 10:24N 35°28' E 139°55'0 0.0
2014-Apr-01 09:30N 35°28' E 139°55'0 0.0
2014-Apr-01 08:27N 35°28' E 139°55'0 0.0
2014-Apr-01 07:24N 35°28' E 139°55'0 0.0
2014-Apr-01 06:21N 35°28' E 139°55'0 0.0
2014-Apr-01 05:30N 35°28' E 139°55'0 0.0
2014-Apr-01 04:30N 35°28' E 139°55'0 0.0
2014-Apr-01 03:30N 35°28' E 139°55'0 0.0
2014-Apr-01 02:33N 35°28' E 139°55'0 0.1
2014-Apr-01 01:27N 35°28' E 139°55'0 0.1
2014-Apr-01 00:33N 35°28' E 139°55'0 0.0
2014-Mar-31 23:33N 35°28' E 139°55'0 0.0
2014-Mar-31 22:24N 35°28' E 139°55'0 0.0
2014-Mar-31 21:24N 35°28' E 139°55'0 0.0
2014-Mar-31 20:30N 35°28' E 139°55'0 0.0
2014-Mar-31 19:33N 35°28' E 139°55'0 0.0
2014-Mar-31 18:30N 35°28' E 139°55'0 0.0
2014-Mar-31 17:33N 35°28' E 139°55'1 0.9
2014-Mar-31 16:33N 35°28' E 139°54'1010.0
2014-Mar-31 15:33N 35°22' E 139°45'1110.8
2014-Mar-31 14:33N 35°11' E 139°47'1110.6
2014-Mar-31 13:33N 35°02' E 139°40'2411.4
2014-Mar-31 11:30N 34°48' E 139°16'225 9.8
2014-Mar-30 12:33N 34°05' E 134°48'  

Dump ship's entire track history